sensor_id;sensor_type;location;lat;lon;timestamp;pressure;altitude;pressure_sealevel;temperature;humidity
31096;BME280;17749;51.962;8.560;2023-05-09T05:01:08;100164.09;;;13.11;100.00
31096;BME280;17749;51.962;8.560;2023-05-09T05:03:35;100154.09;;;13.14;100.00
31096;BME280;17749;51.962;8.560;2023-05-09T05:06:04;100148.31;;;13.24;100.00
31096;BME280;17749;51.962;8.560;2023-05-09T05:08:34;100154.97;;;13.34;100.00
31096;BME280;17749;51.962;8.560;2023-05-09T05:11:01;100161.69;;;13.41;100.00
31096;BME280;17749;51.962;8.560;2023-05-09T05:13:28;100155.09;;;13.48;100.00
31096;BME280;17749;51.962;8.560;2023-05-09T05:15:59;100148.56;;;13.54;100.00
31096;BME280;17749;51.962;8.560;2023-05-09T05:18:37;100153.38;;;13.65;100.00
31096;BME280;17749;51.962;8.560;2023-05-09T05:21:09;100150.44;;;13.69;100.00
31096;BME280;17749;51.962;8.560;2023-05-09T05:23:37;100154.63;;;13.75;100.00
31096;BME280;17749;51.962;8.560;2023-05-09T05:26:14;100156.88;;;13.82;100.00
31096;BME280;17749;51.962;8.560;2023-05-09T05:28:55;100150.34;;;13.88;100.00
31096;BME280;17749;51.962;8.560;2023-05-09T05:31:26;100143.97;;;13.91;100.00
31096;BME280;17749;51.962;8.560;2023-05-09T05:33:58;100136.56;;;13.96;100.00
31096;BME280;17749;51.962;8.560;2023-05-09T05:36:26;100133.47;;;14.03;100.00
31096;BME280;17749;51.962;8.560;2023-05-09T05:38:59;100130.38;;;14.11;100.00
31096;BME280;17749;51.962;8.560;2023-05-09T05:42:10;100116.50;;;14.20;100.00
31096;BME280;17749;51.962;8.560;2023-05-09T05:44:40;100110.72;;;14.28;100.00
31096;BME280;17749;51.962;8.560;2023-05-09T05:47:12;100106.47;;;14.40;100.00
31096;BME280;17749;51.962;8.560;2023-05-09T05:49:47;100113.91;;;14.51;100.00
31096;BME280;17749;51.962;8.560;2023-05-09T05:52:26;100113.63;;;14.57;100.00
31096;BME280;17749;51.962;8.560;2023-05-09T05:55:07;100121.81;;;14.69;100.00
31096;BME280;17749;51.962;8.560;2023-05-09T05:57:45;100109.53;;;14.81;100.00
31096;BME280;17749;51.962;8.560;2023-05-09T06:00:22;100107.78;;;14.96;100.00
31096;BME280;17749;51.962;8.560;2023-05-09T06:03:06;100103.50;;;15.08;100.00
31096;BME280;17749;51.962;8.560;2023-05-09T06:05:48;100092.41;;;15.14;100.00
31096;BME280;17749;51.962;8.560;2023-05-09T06:08:18;100096.28;;;15.24;100.00
31096;BME280;17749;51.962;8.560;2023-05-09T06:10:48;100096.91;;;15.44;100.00
31096;BME280;17749;51.962;8.560;2023-05-09T06:13:19;100100.97;;;15.65;100.00
31096;BME280;17749;51.962;8.560;2023-05-09T06:15:58;100099.31;;;15.93;100.00
31096;BME280;17749;51.962;8.560;2023-05-09T06:18:41;100097.16;;;16.27;100.00
31096;BME280;17749;51.962;8.560;2023-05-09T06:21:11;100098.00;;;16.56;100.00
31096;BME280;17749;51.962;8.560;2023-05-09T06:23:45;100092.53;;;16.84;100.00
31096;BME280;17749;51.962;8.560;2023-05-09T06:26:23;100092.41;;;17.00;100.00
31096;BME280;17749;51.962;8.560;2023-05-09T06:29:02;100089.63;;;17.15;100.00
31096;BME280;17749;51.962;8.560;2023-05-09T06:31:34;100082.22;;;17.31;100.00
31096;BME280;17749;51.962;8.560;2023-05-09T06:34:07;100080.41;;;17.44;100.00
31096;BME280;17749;51.962;8.560;2023-05-09T06:36:37;100076.56;;;17.48;100.00
31096;BME280;17749;51.962;8.560;2023-05-09T06:39:07;100076.56;;;17.48;100.00
31096;BME280;17749;51.962;8.560;2023-05-09T06:41:34;100070.41;;;17.46;100.00
31096;BME280;17749;51.962;8.560;2023-05-09T06:44:01;100064.47;;;17.41;100.00
31096;BME280;17749;51.962;8.560;2023-05-09T06:46:28;100060.94;;;17.41;100.00
31096;BME280;17749;51.962;8.560;2023-05-09T06:48:55;100058.00;;;17.31;100.00
31096;BME280;17749;51.962;8.560;2023-05-09T06:51:22;100049.84;;;17.33;100.00
31096;BME280;17749;51.962;8.560;2023-05-09T06:53:49;100048.66;;;17.49;100.00
31096;BME280;17749;51.962;8.560;2023-05-09T06:56:16;100042.75;;;17.70;100.00
31096;BME280;17749;51.962;8.560;2023-05-09T06:58:46;100040.06;;;17.95;100.00
31096;BME280;17749;51.962;8.560;2023-05-09T07:01:13;100043.44;;;18.23;100.00
31096;BME280;17749;51.962;8.560;2023-05-09T07:03:41;100043.06;;;18.40;100.00
31096;BME280;17749;51.962;8.560;2023-05-09T07:06:08;100035.28;;;18.49;100.00
31096;BME280;17749;51.962;8.560;2023-05-09T07:08:35;100025.06;;;18.65;100.00
31096;BME280;17749;51.962;8.560;2023-05-09T07:11:02;100019.56;;;18.91;100.00
31096;BME280;17749;51.962;8.560;2023-05-09T07:13:29;100021.13;;;19.17;100.00
31096;BME280;17749;51.962;8.560;2023-05-09T07:15:56;100019.47;;;19.39;100.00
31096;BME280;17749;51.962;8.560;2023-05-09T07:18:23;100014.59;;;19.55;100.00
31096;BME280;17749;51.962;8.560;2023-05-09T07:20:50;100010.41;;;19.62;100.00
31096;BME280;17749;51.962;8.560;2023-05-09T07:23:17;100015.25;;;19.81;100.00
31096;BME280;17749;51.962;8.560;2023-05-09T07:25:44;100009.81;;;20.04;100.00
31096;BME280;17749;51.962;8.560;2023-05-09T07:28:11;100017.56;;;20.08;100.00
31096;BME280;17749;51.962;8.560;2023-05-09T07:30:38;100009.22;;;20.00;100.00
31096;BME280;17749;51.962;8.560;2023-05-09T07:33:05;99999.50;;;19.98;100.00
31096;BME280;17749;51.962;8.560;2023-05-09T07:35:33;99997.16;;;19.93;100.00
31096;BME280;17749;51.962;8.560;2023-05-09T07:38:00;99991.75;;;19.93;100.00
31096;BME280;17749;51.962;8.560;2023-05-09T07:40:27;99987.91;;;20.29;100.00
31096;BME280;17749;51.962;8.560;2023-05-09T07:42:54;99988.34;;;20.46;100.00
31096;BME280;17749;51.962;8.560;2023-05-09T07:45:22;99985.13;;;20.52;100.00
31096;BME280;17749;51.962;8.560;2023-05-09T07:47:49;99975.06;;;20.54;100.00
31096;BME280;17749;51.962;8.560;2023-05-09T07:50:16;99974.03;;;20.66;100.00
31096;BME280;17749;51.962;8.560;2023-05-09T07:52:44;99970.38;;;20.67;100.00
31096;BME280;17749;51.962;8.560;2023-05-09T07:55:11;99972.00;;;20.47;100.00
31096;BME280;17749;51.962;8.560;2023-05-09T07:57:38;99980.94;;;20.16;100.00
31096;BME280;17749;51.962;8.560;2023-05-09T08:00:06;99967.06;;;19.98;100.00
31096;BME280;17749;51.962;8.560;2023-05-09T08:02:38;99978.88;;;19.85;100.00
31096;BME280;17749;51.962;8.560;2023-05-09T08:05:06;99959.34;;;19.93;100.00
31096;BME280;17749;51.962;8.560;2023-05-09T08:07:33;99960.81;;;19.97;100.00
31096;BME280;17749;51.962;8.560;2023-05-09T08:10:01;99962.06;;;19.82;100.00
31096;BME280;17749;51.962;8.560;2023-05-09T08:12:28;99959.88;;;19.76;100.00
31096;BME280;17749;51.962;8.560;2023-05-09T08:14:55;99959.72;;;19.77;100.00
31096;BME280;17749;51.962;8.560;2023-05-09T08:17:22;99954.44;;;19.87;100.00
31096;BME280;17749;51.962;8.560;2023-05-09T08:19:49;99945.97;;;19.91;100.00
31096;BME280;17749;51.962;8.560;2023-05-09T08:22:17;99940.66;;;20.01;100.00
31096;BME280;17749;51.962;8.560;2023-05-09T08:24:47;99941.25;;;19.93;100.00
31096;BME280;17749;51.962;8.560;2023-05-09T08:27:17;99938.22;;;19.87;100.00
31096;BME280;17749;51.962;8.560;2023-05-09T08:29:44;99927.44;;;19.76;100.00
31096;BME280;17749;51.962;8.560;2023-05-09T08:32:11;99919.41;;;19.85;100.00
31096;BME280;17749;51.962;8.560;2023-05-09T08:34:42;99936.59;;;19.96;100.00
31096;BME280;17749;51.962;8.560;2023-05-09T08:37:11;99932.06;;;20.07;100.00
31096;BME280;17749;51.962;8.560;2023-05-09T08:39:52;99931.16;;;20.18;100.00
31096;BME280;17749;51.962;8.560;2023-05-09T08:43:10;99922.47;;;20.35;100.00
31096;BME280;17749;51.962;8.560;2023-05-09T08:46:00;99915.03;;;20.28;100.00
31096;BME280;17749;51.962;8.560;2023-05-09T08:48:48;99916.53;;;20.21;100.00
31096;BME280;17749;51.962;8.560;2023-05-09T08:51:17;99916.00;;;20.27;100.00
31096;BME280;17749;51.962;8.560;2023-05-09T08:53:54;99913.94;;;20.30;100.00
31096;BME280;17749;51.962;8.560;2023-05-09T08:56:22;99910.97;;;20.22;100.00
31096;BME280;17749;51.962;8.560;2023-05-09T08:58:53;99915.53;;;20.22;100.00
31096;BME280;17749;51.962;8.560;2023-05-09T09:01:24;99915.03;;;20.28;100.00
31096;BME280;17749;51.962;8.560;2023-05-09T09:03:52;99906.81;;;20.18;100.00
31096;BME280;17749;51.962;8.560;2023-05-09T09:06:20;99901.78;;;20.13;100.00
31096;BME280;17749;51.962;8.560;2023-05-09T09:08:49;99891.63;;;20.06;100.00
31096;BME280;17749;51.962;8.560;2023-05-09T09:11:16;99898.50;;;19.99;100.00
31096;BME280;17749;51.962;8.560;2023-05-09T09:13:45;99899.66;;;19.85;100.00
31096;BME280;17749;51.962;8.560;2023-05-09T09:16:17;99895.97;;;19.75;100.00
31096;BME280;17749;51.962;8.560;2023-05-09T09:18:46;99891.28;;;19.88;100.00
31096;BME280;17749;51.962;8.560;2023-05-09T09:21:14;99882.22;;;19.89;100.00
31096;BME280;17749;51.962;8.560;2023-05-09T09:23:46;99883.94;;;19.90;100.00
31096;BME280;17749;51.962;8.560;2023-05-09T09:26:13;99877.56;;;19.80;100.00
31096;BME280;17749;51.962;8.560;2023-05-09T09:28:41;99885.56;;;19.81;100.00
31096;BME280;17749;51.962;8.560;2023-05-09T09:31:25;99874.00;;;19.79;100.00
31096;BME280;17749;51.962;8.560;2023-05-09T09:34:00;99872.25;;;19.89;100.00
31096;BME280;17749;51.962;8.560;2023-05-09T09:36:30;99859.81;;;19.98;100.00
31096;BME280;17749;51.962;8.560;2023-05-09T09:39:03;99865.22;;;19.98;100.00
31096;BME280;17749;51.962;8.560;2023-05-09T09:41:37;99849.88;;;19.99;100.00
31096;BME280;17749;51.962;8.560;2023-05-09T09:44:13;99848.47;;;20.16;100.00
31096;BME280;17749;51.962;8.560;2023-05-09T09:46:51;99857.56;;;20.35;100.00
31096;BME280;17749;51.962;8.560;2023-05-09T09:49:25;99837.22;;;20.52;100.00
31096;BME280;17749;51.962;8.560;2023-05-09T09:52:06;99840.31;;;20.48;100.00
31096;BME280;17749;51.962;8.560;2023-05-09T09:54:33;99839.44;;;20.58;100.00
31096;BME280;17749;51.962;8.560;2023-05-09T09:57:00;99837.66;;;20.69;100.00
31096;BME280;17749;51.962;8.560;2023-05-09T09:59:31;99825.31;;;20.76;100.00
31096;BME280;17749;51.962;8.560;2023-05-09T10:02:08;99823.78;;;20.83;100.00
31096;BME280;17749;51.962;8.560;2023-05-09T10:04:52;99828.25;;;20.94;100.00
31096;BME280;17749;51.962;8.560;2023-05-09T10:07:22;99824.16;;;20.99;100.00
31096;BME280;17749;51.962;8.560;2023-05-09T10:10:00;99816.81;;;21.21;100.00
31096;BME280;17749;51.962;8.560;2023-05-09T10:12:38;99810.03;;;21.36;100.00
31096;BME280;17749;51.962;8.560;2023-05-09T10:15:16;99803.84;;;21.55;100.00
31096;BME280;17749;51.962;8.560;2023-05-09T10:21:23;99802.44;;;21.61;100.00
31096;BME280;17749;51.962;8.560;2023-05-09T10:23:51;99791.31;;;21.64;100.00
31096;BME280;17749;51.962;8.560;2023-05-09T10:26:28;99795.91;;;21.73;100.00
31096;BME280;17749;51.962;8.560;2023-05-09T10:29:00;99790.91;;;21.78;100.00
31096;BME280;17749;51.962;8.560;2023-05-09T10:31:44;99789.47;;;21.74;100.00
31096;BME280;17749;51.962;8.560;2023-05-09T10:34:17;99783.03;;;21.56;100.00
31096;BME280;17749;51.962;8.560;2023-05-09T10:36:45;99776.06;;;21.63;100.00
31096;BME280;17749;51.962;8.560;2023-05-09T10:39:21;99778.91;;;21.61;100.00
31096;BME280;17749;51.962;8.560;2023-05-09T10:41:53;99773.06;;;21.76;100.00
31096;BME280;17749;51.962;8.560;2023-05-09T10:44:23;99769.78;;;21.82;100.00
31096;BME280;17749;51.962;8.560;2023-05-09T10:46:54;99765.66;;;21.87;100.00
31096;BME280;17749;51.962;8.560;2023-05-09T10:49:27;99764.81;;;21.87;100.00
31096;BME280;17749;51.962;8.560;2023-05-09T10:51:57;99766.81;;;21.95;100.00
31096;BME280;17749;51.962;8.560;2023-05-09T10:54:29;99748.13;;;21.92;100.00
31096;BME280;17749;51.962;8.560;2023-05-09T10:57:01;99748.25;;;22.00;100.00
31096;BME280;17749;51.962;8.560;2023-05-09T10:59:36;99743.97;;;21.97;100.00
31096;BME280;17749;51.962;8.560;2023-05-09T11:02:04;99743.69;;;21.71;100.00
31096;BME280;17749;51.962;8.560;2023-05-09T11:04:32;99739.69;;;21.65;100.00
31096;BME280;17749;51.962;8.560;2023-05-09T11:06:59;99723.44;;;21.75;100.00
31096;BME280;17749;51.962;8.560;2023-05-09T11:09:34;99729.28;;;21.80;100.00
31096;BME280;17749;51.962;8.560;2023-05-09T11:17:26;99720.16;;;21.81;100.00
31096;BME280;17749;51.962;8.560;2023-05-09T11:19:59;99712.31;;;21.78;100.00
31096;BME280;17749;51.962;8.560;2023-05-09T11:22:30;99711.16;;;21.71;100.00
31096;BME280;17749;51.962;8.560;2023-05-09T11:25:03;99705.03;;;21.88;100.00
31096;BME280;17749;51.962;8.560;2023-05-09T11:30:19;99702.31;;;21.88;100.00
31096;BME280;17749;51.962;8.560;2023-05-09T11:32:51;99706.31;;;21.94;100.00
31096;BME280;17749;51.962;8.560;2023-05-09T11:35:24;99694.28;;;22.16;100.00
31096;BME280;17749;51.962;8.560;2023-05-09T11:38:02;99700.56;;;22.26;100.00
31096;BME280;17749;51.962;8.560;2023-05-09T11:40:30;99688.16;;;22.14;100.00
31096;BME280;17749;51.962;8.560;2023-05-09T11:42:59;99685.16;;;22.17;100.00
31096;BME280;17749;51.962;8.560;2023-05-09T11:45:30;99688.03;;;22.25;100.00
31096;BME280;17749;51.962;8.560;2023-05-09T11:47:58;99686.50;;;22.50;100.00
31096;BME280;17749;51.962;8.560;2023-05-09T11:50:27;99681.88;;;22.70;100.00
31096;BME280;17749;51.962;8.560;2023-05-09T11:52:54;99677.56;;;22.78;100.00
31096;BME280;17749;51.962;8.560;2023-05-09T11:55:21;99666.44;;;23.08;100.00
31096;BME280;17749;51.962;8.560;2023-05-09T11:57:52;99665.50;;;23.17;100.00
31096;BME280;17749;51.962;8.560;2023-05-09T12:00:22;99656.56;;;23.07;100.00
31096;BME280;17749;51.962;8.560;2023-05-09T12:02:49;99657.47;;;22.98;100.00
31096;BME280;17749;51.962;8.560;2023-05-09T12:05:18;99654.34;;;22.93;100.00
31096;BME280;17749;51.962;8.560;2023-05-09T12:07:46;99655.16;;;23.03;100.00
31096;BME280;17749;51.962;8.560;2023-05-09T12:10:21;99649.44;;;23.24;100.00
31096;BME280;17749;51.962;8.560;2023-05-09T12:12:52;99634.41;;;23.30;100.00
31096;BME280;17749;51.962;8.560;2023-05-09T12:15:21;99644.38;;;23.11;100.00
31096;BME280;17749;51.962;8.560;2023-05-09T12:18:03;99629.72;;;23.04;100.00
31096;BME280;17749;51.962;8.560;2023-05-09T12:20:45;99629.09;;;23.10;100.00
31096;BME280;17749;51.962;8.560;2023-05-09T12:23:13;99620.09;;;23.28;100.00
31096;BME280;17749;51.962;8.560;2023-05-09T12:25:55;99621.34;;;23.51;100.00
31096;BME280;17749;51.962;8.560;2023-05-09T12:28:33;99618.56;;;23.61;100.00
31096;BME280;17749;51.962;8.560;2023-05-09T12:31:13;99616.31;;;23.74;100.00
31096;BME280;17749;51.962;8.560;2023-05-09T12:33:41;99608.72;;;23.86;100.00
31096;BME280;17749;51.962;8.560;2023-05-09T12:36:10;99599.88;;;23.84;100.00
31096;BME280;17749;51.962;8.560;2023-05-09T12:38:38;99596.44;;;23.74;100.00
31096;BME280;17749;51.962;8.560;2023-05-09T12:41:09;99596.47;;;23.82;100.00
31096;BME280;17749;51.962;8.560;2023-05-09T12:43:57;99595.25;;;23.58;100.00
31096;BME280;17749;51.962;8.560;2023-05-09T12:46:24;99586.47;;;23.47;98.86
31096;BME280;17749;51.962;8.560;2023-05-09T12:48:52;99581.38;;;23.44;100.00
31096;BME280;17749;51.962;8.560;2023-05-09T12:51:21;99586.72;;;23.53;100.00
31096;BME280;17749;51.962;8.560;2023-05-09T12:53:49;99588.72;;;23.51;99.80
31096;BME280;17749;51.962;8.560;2023-05-09T12:56:18;99573.59;;;23.31;100.00
31096;BME280;17749;51.962;8.560;2023-05-09T12:58:50;99582.66;;;23.57;100.00
31096;BME280;17749;51.962;8.560;2023-05-09T13:01:19;99574.94;;;23.71;100.00
31096;BME280;17749;51.962;8.560;2023-05-09T13:04:03;99577.84;;;23.87;100.00
31096;BME280;17749;51.962;8.560;2023-05-09T13:06:32;99572.88;;;23.65;100.00
31096;BME280;17749;51.962;8.560;2023-05-09T13:09:02;99563.88;;;23.64;100.00
31096;BME280;17749;51.962;8.560;2023-05-09T13:11:31;99562.81;;;23.39;100.00
31096;BME280;17749;51.962;8.560;2023-05-09T13:13:58;99568.50;;;23.28;100.00
31096;BME280;17749;51.962;8.560;2023-05-09T13:16:26;99557.06;;;23.42;100.00
31096;BME280;17749;51.962;8.560;2023-05-09T13:18:53;99558.78;;;23.43;100.00
31096;BME280;17749;51.962;8.560;2023-05-09T13:21:20;99562.63;;;23.58;100.00
31096;BME280;17749;51.962;8.560;2023-05-09T13:23:47;99541.94;;;23.66;100.00
31096;BME280;17749;51.962;8.560;2023-05-09T13:26:15;99539.34;;;23.74;100.00
31096;BME280;17749;51.962;8.560;2023-05-09T13:28:42;99539.03;;;23.77;100.00
31096;BME280;17749;51.962;8.560;2023-05-09T13:31:10;99526.13;;;23.79;99.38
31096;BME280;17749;51.962;8.560;2023-05-09T13:33:37;99518.38;;;23.92;99.02
31096;BME280;17749;51.962;8.560;2023-05-09T13:36:04;99515.06;;;24.15;98.55
31096;BME280;17749;51.962;8.560;2023-05-09T13:38:32;99515.06;;;24.15;97.21
31096;BME280;17749;51.962;8.560;2023-05-09T13:41:03;99503.03;;;24.25;99.61
31096;BME280;17749;51.962;8.560;2023-05-09T13:43:30;99509.94;;;24.03;95.06
31096;BME280;17749;51.962;8.560;2023-05-09T13:45:57;99507.13;;;23.87;96.63
31096;BME280;17749;51.962;8.560;2023-05-09T13:48:24;99508.41;;;23.75;95.66
31096;BME280;17749;51.962;8.560;2023-05-09T13:50:52;99498.47;;;23.66;95.09
31096;BME280;17749;51.962;8.560;2023-05-09T13:53:19;99490.63;;;23.62;97.69
31096;BME280;17749;51.962;8.560;2023-05-09T13:55:46;99485.66;;;23.76;96.95
31096;BME280;17749;51.962;8.560;2023-05-09T13:58:14;99489.94;;;23.87;97.87
31096;BME280;17749;51.962;8.560;2023-05-09T14:00:41;99482.97;;;23.84;97.22
31096;BME280;17749;51.962;8.560;2023-05-09T14:03:08;99492.84;;;23.85;95.99
31096;BME280;17749;51.962;8.560;2023-05-09T14:05:35;99483.47;;;23.79;96.78
31096;BME280;17749;51.962;8.560;2023-05-09T14:08:02;99496.84;;;23.73;97.25
31096;BME280;17749;51.962;8.560;2023-05-09T14:10:31;99486.13;;;23.71;98.23
31096;BME280;17749;51.962;8.560;2023-05-09T14:12:58;99482.16;;;23.66;97.33
31096;BME280;17749;51.962;8.560;2023-05-09T14:15:25;99479.53;;;23.74;97.49
31096;BME280;17749;51.962;8.560;2023-05-09T14:17:53;99474.94;;;23.74;97.94
31096;BME280;17749;51.962;8.560;2023-05-09T14:20:20;99468.84;;;23.54;96.09
31096;BME280;17749;51.962;8.560;2023-05-09T14:23:00;99468.00;;;23.28;96.14
31096;BME280;17749;51.962;8.560;2023-05-09T14:25:27;99455.84;;;23.14;96.66
31096;BME280;17749;51.962;8.560;2023-05-09T14:27:54;99462.44;;;22.93;97.56
31096;BME280;17749;51.962;8.560;2023-05-09T14:30:22;99455.13;;;22.94;99.60
31096;BME280;17749;51.962;8.560;2023-05-09T14:32:51;99456.56;;;22.98;100.00
31096;BME280;17749;51.962;8.560;2023-05-09T14:35:17;99458.09;;;22.83;98.76
31096;BME280;17749;51.962;8.560;2023-05-09T14:37:45;99450.66;;;22.85;100.00
31096;BME280;17749;51.962;8.560;2023-05-09T14:40:14;99449.41;;;22.97;100.00
31096;BME280;17749;51.962;8.560;2023-05-09T14:42:42;99449.09;;;23.00;100.00
31096;BME280;17749;51.962;8.560;2023-05-09T14:45:10;99446.97;;;22.94;99.40
31096;BME280;17749;51.962;8.560;2023-05-09T14:47:38;99439.03;;;22.74;100.00
31096;BME280;17749;51.962;8.560;2023-05-09T14:50:08;99440.56;;;22.59;100.00
31096;BME280;17749;51.962;8.560;2023-05-09T14:52:42;99435.84;;;22.43;99.96
31096;BME280;17749;51.962;8.560;2023-05-09T14:55:11;99437.00;;;22.41;100.00
31096;BME280;17749;51.962;8.560;2023-05-09T14:57:38;99424.59;;;22.56;100.00
31096;BME280;17749;51.962;8.560;2023-05-09T15:00:07;99428.78;;;22.68;100.00
31096;BME280;17749;51.962;8.560;2023-05-09T15:02:46;99425.00;;;22.61;100.00
31096;BME280;17749;51.962;8.560;2023-05-09T15:05:26;99435.34;;;22.66;100.00
31096;BME280;17749;51.962;8.560;2023-05-09T15:07:53;99433.50;;;22.48;100.00
31096;BME280;17749;51.962;8.560;2023-05-09T15:10:21;99419.88;;;22.13;100.00
31096;BME280;17749;51.962;8.560;2023-05-09T15:12:48;99416.28;;;21.94;100.00
31096;BME280;17749;51.962;8.560;2023-05-09T15:15:17;99422.97;;;21.90;100.00
31096;BME280;17749;51.962;8.560;2023-05-09T15:17:45;99425.88;;;21.88;100.00
31096;BME280;17749;51.962;8.560;2023-05-09T15:20:13;99421.63;;;21.76;100.00
31096;BME280;17749;51.962;8.560;2023-05-09T15:22:45;99425.34;;;21.75;100.00
31096;BME280;17749;51.962;8.560;2023-05-09T15:25:13;99415.63;;;21.82;100.00
31096;BME280;17749;51.962;8.560;2023-05-09T15:27:40;99411.25;;;21.72;100.00
31096;BME280;17749;51.962;8.560;2023-05-09T15:30:10;99401.34;;;21.53;100.00
31096;BME280;17749;51.962;8.560;2023-05-09T15:32:41;99400.22;;;21.45;100.00
31096;BME280;17749;51.962;8.560;2023-05-09T15:35:09;99400.81;;;21.39;100.00
31096;BME280;17749;51.962;8.560;2023-05-09T15:37:37;99399.81;;;21.40;100.00
31096;BME280;17749;51.962;8.560;2023-05-09T15:40:04;99395.78;;;21.54;100.00
31096;BME280;17749;51.962;8.560;2023-05-09T15:42:35;99395.34;;;21.59;100.00
31096;BME280;17749;51.962;8.560;2023-05-09T15:45:14;99392.06;;;21.55;100.00
31096;BME280;17749;51.962;8.560;2023-05-09T15:47:42;99388.31;;;21.38;100.00
31096;BME280;17749;51.962;8.560;2023-05-09T15:50:11;99381.88;;;21.30;100.00
31096;BME280;17749;51.962;8.560;2023-05-09T15:52:39;99387.84;;;21.33;100.00
31096;BME280;17749;51.962;8.560;2023-05-09T15:55:09;99382.56;;;21.32;100.00
31096;BME280;17749;51.962;8.560;2023-05-09T15:57:40;99380.59;;;21.24;100.00
31096;BME280;17749;51.962;8.560;2023-05-09T16:00:10;99375.38;;;21.13;100.00
31096;BME280;17749;51.962;8.560;2023-05-09T16:02:39;99373.38;;;21.15;100.00
31096;BME280;17749;51.962;8.560;2023-05-09T16:05:09;99373.63;;;21.21;100.00
31096;BME280;17749;51.962;8.560;2023-05-09T16:08:15;99375.38;;;21.13;100.00
31096;BME280;17749;51.962;8.560;2023-05-09T16:10:43;99370.81;;;21.13;100.00
31096;BME280;17749;51.962;8.560;2023-05-09T16:13:28;99377.25;;;21.02;100.00
31096;BME280;17749;51.962;8.560;2023-05-09T16:15:57;99371.41;;;20.97;100.00
31096;BME280;17749;51.962;8.560;2023-05-09T16:18:24;99378.56;;;20.89;100.00
31096;BME280;17749;51.962;8.560;2023-05-09T16:20:51;99372.00;;;20.91;100.00
31096;BME280;17749;51.962;8.560;2023-05-09T16:23:18;99368.88;;;20.86;100.00
31096;BME280;17749;51.962;8.560;2023-05-09T16:25:50;99375.31;;;20.75;100.00
31096;BME280;17749;51.962;8.560;2023-05-09T16:28:31;99368.91;;;20.67;100.00
31096;BME280;17749;51.962;8.560;2023-05-09T16:30:58;99362.09;;;20.63;100.00
31096;BME280;17749;51.962;8.560;2023-05-09T16:33:42;99360.47;;;20.50;100.00
31096;BME280;17749;51.962;8.560;2023-05-09T16:36:23;99358.91;;;20.48;100.00
31096;BME280;17749;51.962;8.560;2023-05-09T16:38:51;99351.50;;;20.40;100.00
31096;BME280;17749;51.962;8.560;2023-05-09T16:41:37;99349.81;;;20.39;100.00
31096;BME280;17749;51.962;8.560;2023-05-09T16:44:04;99348.09;;;20.38;100.00
31096;BME280;17749;51.962;8.560;2023-05-09T16:46:31;99340.72;;;20.21;100.00
31096;BME280;17749;51.962;8.560;2023-05-09T16:48:58;99338.25;;;19.98;100.00
31096;BME280;17749;51.962;8.560;2023-05-09T16:51:25;99333.56;;;19.90;100.00
31096;BME280;17749;51.962;8.560;2023-05-09T16:53:53;99330.13;;;19.88;100.00
31096;BME280;17749;51.962;8.560;2023-05-09T16:56:34;99328.31;;;19.89;100.00
31096;BME280;17749;51.962;8.560;2023-05-09T16:59:02;99327.16;;;19.82;100.00
31096;BME280;17749;51.962;8.560;2023-05-09T17:01:29;99329.28;;;19.88;100.00
31096;BME280;17749;51.962;8.560;2023-05-09T17:03:57;99322.19;;;19.87;100.00
31096;BME280;17749;51.962;8.560;2023-05-09T17:06:24;99320.75;;;19.83;100.00
31096;BME280;17749;51.962;8.560;2023-05-09T17:08:52;99321.88;;;19.80;100.00
31096;BME280;17749;51.962;8.560;2023-05-09T17:11:19;99319.88;;;19.73;100.00
31096;BME280;17749;51.962;8.560;2023-05-09T17:13:47;99327.78;;;19.64;100.00
31096;BME280;17749;51.962;8.560;2023-05-09T17:16:14;99311.28;;;19.58;100.00
31096;BME280;17749;51.962;8.560;2023-05-09T17:18:41;99311.81;;;19.52;100.00
31096;BME280;17749;51.962;8.560;2023-05-09T17:21:15;99316.09;;;19.54;100.00
31096;BME280;17749;51.962;8.560;2023-05-09T17:23:43;99316.66;;;19.48;100.00
31096;BME280;17749;51.962;8.560;2023-05-09T17:26:22;99324.03;;;19.46;100.00
31096;BME280;17749;51.962;8.560;2023-05-09T17:29:25;99323.31;;;19.44;100.00
31096;BME280;17749;51.962;8.560;2023-05-09T17:32:53;99329.16;;;19.49;100.00
31096;BME280;17749;51.962;8.560;2023-05-09T17:35:35;99327.75;;;19.45;100.00
31096;BME280;17749;51.962;8.560;2023-05-09T17:38:21;99318.91;;;19.43;100.00
31096;BME280;17749;51.962;8.560;2023-05-09T17:41:19;99316.06;;;19.35;100.00
31096;BME280;17749;51.962;8.560;2023-05-09T17:44:06;99317.56;;;19.18;100.00
31096;BME280;17749;51.962;8.560;2023-05-09T17:46:49;99320.78;;;19.12;100.00
31096;BME280;17749;51.962;8.560;2023-05-09T17:49:34;99316.06;;;19.04;100.00
31096;BME280;17749;51.962;8.560;2023-05-09T17:52:06;99314.47;;;19.01;100.00
31096;BME280;17749;51.962;8.560;2023-05-09T17:54:51;99321.44;;;19.04;100.00
31096;BME280;17749;51.962;8.560;2023-05-09T17:57:40;99319.31;;;18.98;100.00
31096;BME280;17749;51.962;8.560;2023-05-09T18:00:12;99322.56;;;18.92;100.00
31096;BME280;17749;51.962;8.560;2023-05-09T18:02:42;99322.34;;;18.83;100.00
31096;BME280;17749;51.962;8.560;2023-05-09T18:05:17;99324.56;;;18.78;100.00
31096;BME280;17749;51.962;8.560;2023-05-09T18:08:09;99321.19;;;18.76;100.00
31096;BME280;17749;51.962;8.560;2023-05-09T18:11:02;99331.69;;;18.79;100.00
31096;BME280;17749;51.962;8.560;2023-05-09T18:13:29;99320.69;;;18.71;100.00
31096;BME280;17749;51.962;8.560;2023-05-09T18:16:00;99316.81;;;18.64;100.00
31096;BME280;17749;51.962;8.560;2023-05-09T18:18:50;99328.13;;;18.58;100.00
31096;BME280;17749;51.962;8.560;2023-05-09T18:21:31;99314.91;;;18.55;100.00
31096;BME280;17749;51.962;8.560;2023-05-09T18:24:07;99313.19;;;18.54;100.00
31096;BME280;17749;51.962;8.560;2023-05-09T18:26:35;99314.19;;;18.53;100.00